createdAt,value
2019-05-06T00:03:13.923Z,9.67
2019-05-06T00:08:15.977Z,9.71
2019-05-06T00:13:18.115Z,9.65
2019-05-06T00:18:19.477Z,9.28
2019-05-06T00:23:21.701Z,9.31
2019-05-06T00:28:26.683Z,9.16
2019-05-06T00:33:28.149Z,9.29
2019-05-06T00:38:29.484Z,9.29
2019-05-06T00:43:31.585Z,9.35
2019-05-06T00:48:34.094Z,9.37
2019-05-06T00:53:35.133Z,9.36
2019-05-06T00:58:36.427Z,9.24
2019-05-06T01:03:37.806Z,9.19
2019-05-06T01:08:39.162Z,9.28
2019-05-06T01:13:41.430Z,9.11
2019-05-06T01:18:43.483Z,8.88
2019-05-06T01:23:44.177Z,8.58
2019-05-06T01:28:45.547Z,8.88
2019-05-06T01:33:46.927Z,9.00
2019-05-06T01:38:48.282Z,8.69
2019-05-06T01:43:49.625Z,8.83
2019-05-06T01:48:50.961Z,8.93
2019-05-06T01:53:54.186Z,8.82
2019-05-06T01:58:53.784Z,8.85
2019-05-06T02:03:55.064Z,8.85
2019-05-06T02:08:56.400Z,8.80
2019-05-06T02:13:58.487Z,8.46
2019-05-06T02:19:00.577Z,8.45
2019-05-06T02:24:08.259Z,8.68
2019-05-06T02:29:11.543Z,8.65
2019-05-06T02:34:15.864Z,8.58
2019-05-06T02:39:17.284Z,8.64
2019-05-06T02:44:19.350Z,8.63
2019-05-06T02:49:35.637Z,8.71
2019-05-06T02:54:36.925Z,8.60
2019-05-06T02:59:38.257Z,8.26
2019-05-06T03:04:39.582Z,8.32
2019-05-06T03:09:40.895Z,8.39
2019-05-06T03:14:43.629Z,8.08
2019-05-06T03:19:46.005Z,7.82
2019-05-06T03:24:44.975Z,7.35
2019-05-06T03:29:46.327Z,7.66
2019-05-06T03:35:07.745Z,7.80
2019-05-06T03:39:49.025Z,7.81
2019-05-06T03:44:52.968Z,7.82
2019-05-06T03:49:54.476Z,8.06
2019-05-06T03:54:53.862Z,7.67
2019-05-06T03:59:55.171Z,7.56
2019-05-06T04:04:57.034Z,7.54
2019-05-06T04:09:57.863Z,8.10
2019-05-06T04:14:59.222Z,7.54
2019-05-06T04:20:03.980Z,8.09
2019-05-06T04:25:09.405Z,8.27
2019-05-06T04:30:13.264Z,8.31
2019-05-06T04:35:13.461Z,8.10
2019-05-06T04:40:13.695Z,7.99
2019-05-06T04:45:17.365Z,8.16
2019-05-06T04:50:16.423Z,8.30
2019-05-06T04:55:17.785Z,8.46
2019-05-06T05:00:19.122Z,8.46
2019-05-06T05:05:23.148Z,8.32
2019-05-06T05:10:23.452Z,8.45
2019-05-06T05:20:57.413Z,8.21
2019-05-06T05:25:58.750Z,8.26
2019-05-06T05:31:00.105Z,8.59
2019-05-06T05:36:02.071Z,8.26
2019-05-06T05:41:03.167Z,8.60
2019-05-06T05:46:04.154Z,8.09
2019-05-06T05:51:05.537Z,8.02
2019-05-06T05:56:06.842Z,8.77
2019-05-06T06:01:08.210Z,8.75
2019-05-06T06:06:09.557Z,8.68
2019-05-06T06:11:12.250Z,8.48
2019-05-06T06:16:17.802Z,9.18
2019-05-06T06:21:27.650Z,8.55
2019-05-06T06:26:23.578Z,8.85
2019-05-06T06:31:25.738Z,8.94
2019-05-06T06:36:29.052Z,9.09
2019-05-06T06:41:32.214Z,8.77
2019-05-06T06:46:32.407Z,9.28
2019-05-06T06:51:33.282Z,9.43
2019-05-06T07:02:02.818Z,9.06
2019-05-06T07:07:03.761Z,9.30
2019-05-06T07:12:05.241Z,9.52
2019-05-06T07:17:06.565Z,9.86
2019-05-06T07:22:07.929Z,9.66
2019-05-06T07:27:12.409Z,10.09
2019-05-06T07:32:12.275Z,10.37
2019-05-06T07:37:13.737Z,10.23
2019-05-06T07:42:16.849Z,10.32
2019-05-06T07:47:23.771Z,10.70
2019-05-06T07:52:23.198Z,10.51
2019-05-06T07:57:24.497Z,10.35
2019-05-06T08:02:26.618Z,10.33
2019-05-06T08:07:28.034Z,10.52
2019-05-06T08:12:29.376Z,10.77
2019-05-06T08:17:32.928Z,11.32
2019-05-06T08:28:03.433Z,11.17
2019-05-06T08:33:04.826Z,10.62
2019-05-06T08:38:06.177Z,11.48
2019-05-06T08:43:07.516Z,10.92
2019-05-06T08:48:09.453Z,11.77
2019-05-06T08:58:44.240Z,10.96
2019-05-06T09:03:46.488Z,10.44
2019-05-06T09:08:48.065Z,10.93
2019-05-06T09:13:49.429Z,11.04
2019-05-06T09:18:53.088Z,11.19
2019-05-06T09:23:53.144Z,11.56
2019-05-06T09:28:53.526Z,10.55
2019-05-06T09:33:55.621Z,11.60
2019-05-06T09:38:56.985Z,12.01
2019-05-06T09:43:58.332Z,11.50
2019-05-06T09:49:07.714Z,11.42
2019-05-06T09:54:09.067Z,11.17
2019-05-06T09:59:12.767Z,12.26
2019-05-06T10:04:13.089Z,11.75
2019-05-06T10:09:15.907Z,12.31
2019-05-06T10:14:14.606Z,13.40
2019-05-06T10:19:15.970Z,13.53
2019-05-06T10:24:17.331Z,13.49
2019-05-06T10:29:22.449Z,11.90
2019-05-06T10:34:23.865Z,13.01
2019-05-06T10:39:25.322Z,11.29
2019-05-06T10:44:45.359Z,11.81
2019-05-06T10:49:46.680Z,12.64
2019-05-06T10:54:48.010Z,12.86
2019-05-06T10:59:49.470Z,11.97
2019-05-06T11:04:52.830Z,11.74
2019-05-06T11:09:53.471Z,12.99
2019-05-06T11:14:55.845Z,11.54
2019-05-06T11:19:56.140Z,11.68
2019-05-06T11:24:57.501Z,12.13
2019-05-06T11:29:58.846Z,12.04
2019-05-06T11:35:03.480Z,12.46
2019-05-06T11:40:02.399Z,12.98
2019-05-06T11:45:03.770Z,12.58
2019-05-06T11:50:06.181Z,12.31
2019-05-06T11:55:08.345Z,12.46
2019-05-06T12:00:10.350Z,12.10
2019-05-06T12:05:11.442Z,11.87
2019-05-06T12:10:13.037Z,12.43
2019-05-06T12:15:14.323Z,11.93
2019-05-06T12:20:16.422Z,12.36
2019-05-06T12:25:18.515Z,12.09
2019-05-06T12:30:19.976Z,11.95
2019-05-06T12:35:21.338Z,12.15
2019-05-06T12:40:22.751Z,13.18
2019-05-06T12:45:24.142Z,12.83
2019-05-06T12:50:25.515Z,13.68
2019-05-06T12:55:27.949Z,13.33
2019-05-06T13:00:29.315Z,12.71
2019-05-06T13:05:31.946Z,12.55
2019-05-06T13:10:33.525Z,13.86
2019-05-06T13:15:34.494Z,13.12
2019-05-06T13:20:36.596Z,12.80
2019-05-06T13:25:38.013Z,12.49
2019-05-06T13:30:39.389Z,12.55
2019-05-06T13:35:41.920Z,13.50
2019-05-06T13:40:54.096Z,12.98
2019-05-06T13:45:46.234Z,13.23
2019-05-06T13:50:47.597Z,13.70
2019-05-06T13:55:49.468Z,13.78
2019-05-06T14:00:51.977Z,15.09
2019-05-06T14:05:52.235Z,15.21
2019-05-06T14:10:59.588Z,15.04
2019-05-06T14:15:55.749Z,14.44
2019-05-06T14:20:57.086Z,13.86
2019-05-06T14:26:03.957Z,14.05
2019-05-06T14:36:33.680Z,13.58
2019-05-06T14:41:35.054Z,12.40
2019-05-06T14:46:43.214Z,13.33
2019-05-06T14:51:44.570Z,13.37
2019-05-06T15:02:18.272Z,11.82
2019-05-06T15:07:21.907Z,12.40
2019-05-06T15:12:22.965Z,12.21
2019-05-06T15:17:23.345Z,11.98
2019-05-06T15:22:24.676Z,11.78
2019-05-06T15:27:26.793Z,12.36
2019-05-06T15:32:28.168Z,11.57
2019-05-06T15:37:43.320Z,11.74
2019-05-06T15:42:44.652Z,12.01
2019-05-06T15:47:46.006Z,12.33
2019-05-06T15:52:47.334Z,13.08
2019-05-06T15:57:48.766Z,12.56
2019-05-06T16:02:52.966Z,12.59
2019-05-06T16:07:57.460Z,12.87
2019-05-06T16:12:59.616Z,12.26
2019-05-06T16:18:02.233Z,12.64
2019-05-06T16:23:08.338Z,12.84
2019-05-06T16:28:09.710Z,13.17
2019-05-06T16:33:12.149Z,12.67
2019-05-06T16:38:13.130Z,13.28
2019-05-06T16:43:13.839Z,12.19
2019-05-06T16:48:15.926Z,11.89
2019-05-06T16:53:17.289Z,12.18
2019-05-06T16:58:19.413Z,11.45
2019-05-06T17:03:29.165Z,11.87
2019-05-06T17:08:33.343Z,11.47
2019-05-06T17:13:33.998Z,11.67
2019-05-06T17:18:34.132Z,10.83
2019-05-06T17:23:35.495Z,10.66
2019-05-06T17:28:41.664Z,10.72
2019-05-06T17:33:43.061Z,10.99
2019-05-06T17:38:48.030Z,11.07
2019-05-06T17:43:49.373Z,10.93
2019-05-06T17:54:22.149Z,11.12
2019-05-06T17:59:22.154Z,11.08
2019-05-06T18:04:24.247Z,10.80
2019-05-06T18:09:25.587Z,10.87
2019-05-06T18:14:27.691Z,11.06
2019-05-06T18:19:29.056Z,11.77
2019-05-06T18:24:30.479Z,11.68
2019-05-06T18:29:33.498Z,11.64
2019-05-06T18:34:33.390Z,11.66
2019-05-06T18:39:34.638Z,11.21
2019-05-06T18:44:36.016Z,11.45
2019-05-06T18:49:37.444Z,11.88
2019-05-06T18:54:38.759Z,11.85
2019-05-06T18:59:42.070Z,11.76
2019-05-06T19:04:41.922Z,11.83
2019-05-06T19:09:43.923Z,11.57
2019-05-06T19:14:45.288Z,11.81
2019-05-06T19:19:46.596Z,11.82
2019-05-06T19:24:47.915Z,11.87
2019-05-06T19:29:49.306Z,11.83
2019-05-06T19:34:52.841Z,11.83
2019-05-06T19:39:52.540Z,11.75
2019-05-06T19:44:54.066Z,11.66
2019-05-06T19:49:56.101Z,11.63
2019-05-06T19:54:57.421Z,11.79
2019-05-06T19:59:58.738Z,11.63
2019-05-06T20:05:03.189Z,11.56
2019-05-06T20:10:14.121Z,11.41
2019-05-06T20:15:22.265Z,11.30
2019-05-06T20:20:23.600Z,11.37
2019-05-06T20:25:25.782Z,11.42
2019-05-06T20:30:27.184Z,11.39
2019-05-06T20:35:52.422Z,11.35
2019-05-06T20:40:51.874Z,11.32
2019-05-06T20:45:55.427Z,11.34
2019-05-06T20:51:00.159Z,11.30
2019-05-06T20:56:05.241Z,11.29
2019-05-06T21:01:08.726Z,11.22
2019-05-06T21:06:14.181Z,11.23
2019-05-06T21:11:26.542Z,11.27
2019-05-06T21:16:24.293Z,11.30
2019-05-06T21:21:28.603Z,11.29
2019-05-06T21:26:33.128Z,11.18
2019-05-06T21:31:35.692Z,11.12
2019-05-06T21:36:42.058Z,11.22
2019-05-06T21:41:42.737Z,11.30
2019-05-06T21:46:45.255Z,11.13
2019-05-06T21:51:50.351Z,11.14
2019-05-06T21:56:53.358Z,11.13
2019-05-06T22:01:54.539Z,11.09
2019-05-06T22:06:55.892Z,11.11
2019-05-06T22:11:57.861Z,11.13
2019-05-06T22:16:59.232Z,11.06
2019-05-06T22:22:00.580Z,11.01
2019-05-06T22:27:02.864Z,11.08
2019-05-06T22:32:03.315Z,11.12
2019-05-06T22:37:04.639Z,11.05
2019-05-06T22:42:05.950Z,11.13
2019-05-06T22:47:07.285Z,11.03
2019-05-06T22:52:09.053Z,10.95
2019-05-06T22:57:12.032Z,10.99
2019-05-06T23:02:13.720Z,10.77
2019-05-06T23:07:15.028Z,10.86
2019-05-06T23:12:16.369Z,10.81
2019-05-06T23:17:17.697Z,10.77
2019-05-06T23:22:19.745Z,10.62
2019-05-06T23:27:23.279Z,10.59
2019-05-06T23:32:22.993Z,10.41
2019-05-06T23:37:23.724Z,10.39
2019-05-06T23:42:43.620Z,10.29
2019-05-06T23:48:04.448Z,10.28
2019-05-06T23:53:24.340Z,10.22
2019-05-06T23:58:25.402Z,10.07
